sensor_id;sensor_type;location;lat;lon;timestamp;P1;durP1;ratioP1;P2;durP2;ratioP2
43345;SDS011;28937;51.160;4.146;2022-08-06T00:00:50;4.80;;;1.85;;
43345;SDS011;28937;51.160;4.146;2022-08-06T00:03:16;5.20;;;2.03;;
43345;SDS011;28937;51.160;4.146;2022-08-06T00:05:42;5.65;;;1.67;;
43345;SDS011;28937;51.160;4.146;2022-08-06T00:08:07;5.88;;;1.67;;
43345;SDS011;28937;51.160;4.146;2022-08-06T00:10:33;3.08;;;1.25;;
43345;SDS011;28937;51.160;4.146;2022-08-06T00:12:59;4.25;;;1.33;;
43345;SDS011;28937;51.160;4.146;2022-08-06T00:15:25;3.70;;;0.95;;
43345;SDS011;28937;51.160;4.146;2022-08-06T00:17:51;3.60;;;0.98;;
43345;SDS011;28937;51.160;4.146;2022-08-06T00:20:16;3.92;;;1.10;;
43345;SDS011;28937;51.160;4.146;2022-08-06T00:22:42;4.40;;;1.35;;
43345;SDS011;28937;51.160;4.146;2022-08-06T00:25:08;3.42;;;0.80;;
43345;SDS011;28937;51.160;4.146;2022-08-06T00:27:35;4.10;;;1.10;;
43345;SDS011;28937;51.160;4.146;2022-08-06T00:30:01;3.53;;;0.77;;
43345;SDS011;28937;51.160;4.146;2022-08-06T00:32:28;4.90;;;1.25;;
43345;SDS011;28937;51.160;4.146;2022-08-06T00:34:54;4.07;;;1.25;;
43345;SDS011;28937;51.160;4.146;2022-08-06T00:37:19;3.65;;;1.10;;
43345;SDS011;28937;51.160;4.146;2022-08-06T00:39:45;3.65;;;1.10;;
43345;SDS011;28937;51.160;4.146;2022-08-06T00:42:11;6.45;;;1.40;;
43345;SDS011;28937;51.160;4.146;2022-08-06T00:44:37;3.75;;;1.20;;
43345;SDS011;28937;51.160;4.146;2022-08-06T00:47:02;3.92;;;1.13;;
43345;SDS011;28937;51.160;4.146;2022-08-06T00:49:28;2.50;;;0.93;;
43345;SDS011;28937;51.160;4.146;2022-08-06T00:51:54;3.30;;;1.13;;
43345;SDS011;28937;51.160;4.146;2022-08-06T00:54:20;5.28;;;1.05;;
43345;SDS011;28937;51.160;4.146;2022-08-06T00:56:46;7.20;;;1.23;;
43345;SDS011;28937;51.160;4.146;2022-08-06T00:59:11;4.18;;;1.25;;
43345;SDS011;28937;51.160;4.146;2022-08-06T01:01:37;2.83;;;1.20;;
43345;SDS011;28937;51.160;4.146;2022-08-06T01:04:03;4.43;;;1.45;;
43345;SDS011;28937;51.160;4.146;2022-08-06T01:06:29;5.85;;;1.27;;
43345;SDS011;28937;51.160;4.146;2022-08-06T01:08:54;4.38;;;1.10;;
43345;SDS011;28937;51.160;4.146;2022-08-06T01:11:20;5.85;;;1.48;;
43345;SDS011;28937;51.160;4.146;2022-08-06T01:13:46;8.45;;;1.58;;
43345;SDS011;28937;51.160;4.146;2022-08-06T01:21:56;4.85;;;1.20;;
43345;SDS011;28937;51.160;4.146;2022-08-06T01:24:43;4.88;;;0.95;;
43345;SDS011;28937;51.160;4.146;2022-08-06T01:30:04;7.40;;;1.23;;
43345;SDS011;28937;51.160;4.146;2022-08-06T01:32:35;4.65;;;1.48;;
43345;SDS011;28937;51.160;4.146;2022-08-06T01:35:18;5.68;;;1.20;;
43345;SDS011;28937;51.160;4.146;2022-08-06T01:37:58;5.00;;;1.30;;
43345;SDS011;28937;51.160;4.146;2022-08-06T01:40:34;3.92;;;0.95;;
43345;SDS011;28937;51.160;4.146;2022-08-06T01:43:03;6.57;;;1.08;;
43345;SDS011;28937;51.160;4.146;2022-08-06T01:45:32;6.03;;;1.45;;
43345;SDS011;28937;51.160;4.146;2022-08-06T01:48:03;3.63;;;1.13;;
43345;SDS011;28937;51.160;4.146;2022-08-06T01:50:36;3.70;;;1.60;;
43345;SDS011;28937;51.160;4.146;2022-08-06T01:53:06;5.97;;;1.20;;
43345;SDS011;28937;51.160;4.146;2022-08-06T01:55:40;5.55;;;1.13;;
43345;SDS011;28937;51.160;4.146;2022-08-06T01:58:08;2.65;;;1.10;;
43345;SDS011;28937;51.160;4.146;2022-08-06T02:00:37;4.05;;;1.20;;
43345;SDS011;28937;51.160;4.146;2022-08-06T02:03:08;3.70;;;1.10;;
43345;SDS011;28937;51.160;4.146;2022-08-06T02:05:37;2.43;;;1.03;;
43345;SDS011;28937;51.160;4.146;2022-08-06T02:08:05;2.35;;;0.85;;
43345;SDS011;28937;51.160;4.146;2022-08-06T02:10:32;5.00;;;1.52;;
43345;SDS011;28937;51.160;4.146;2022-08-06T02:13:00;2.65;;;1.10;;
43345;SDS011;28937;51.160;4.146;2022-08-06T02:15:28;4.07;;;1.10;;
43345;SDS011;28937;51.160;4.146;2022-08-06T02:17:57;7.40;;;1.08;;
43345;SDS011;28937;51.160;4.146;2022-08-06T02:20:25;4.07;;;1.40;;
43345;SDS011;28937;51.160;4.146;2022-08-06T02:22:55;4.10;;;1.10;;
43345;SDS011;28937;51.160;4.146;2022-08-06T02:25:24;4.65;;;1.13;;
43345;SDS011;28937;51.160;4.146;2022-08-06T02:27:52;3.50;;;0.95;;
43345;SDS011;28937;51.160;4.146;2022-08-06T02:30:20;2.92;;;0.90;;
43345;SDS011;28937;51.160;4.146;2022-08-06T02:32:48;3.22;;;1.10;;
43345;SDS011;28937;51.160;4.146;2022-08-06T02:35:13;3.63;;;1.10;;
43345;SDS011;28937;51.160;4.146;2022-08-06T02:37:48;3.90;;;1.20;;
43345;SDS011;28937;51.160;4.146;2022-08-06T02:40:24;3.85;;;1.05;;
43345;SDS011;28937;51.160;4.146;2022-08-06T02:42:58;4.93;;;1.05;;
43345;SDS011;28937;51.160;4.146;2022-08-06T02:45:43;3.95;;;1.13;;
43345;SDS011;28937;51.160;4.146;2022-08-06T02:50:54;3.28;;;0.80;;
43345;SDS011;28937;51.160;4.146;2022-08-06T02:53:23;5.40;;;1.13;;
43345;SDS011;28937;51.160;4.146;2022-08-06T02:55:56;3.63;;;1.20;;
43345;SDS011;28937;51.160;4.146;2022-08-06T02:58:32;4.40;;;1.10;;
43345;SDS011;28937;51.160;4.146;2022-08-06T03:01:00;3.50;;;1.20;;
43345;SDS011;28937;51.160;4.146;2022-08-06T03:03:31;4.00;;;0.90;;
43345;SDS011;28937;51.160;4.146;2022-08-06T03:05:58;3.67;;;1.08;;
43345;SDS011;28937;51.160;4.146;2022-08-06T03:08:27;3.00;;;0.90;;
43345;SDS011;28937;51.160;4.146;2022-08-06T03:10:55;3.58;;;0.82;;
43345;SDS011;28937;51.160;4.146;2022-08-06T03:13:22;6.10;;;1.10;;
43345;SDS011;28937;51.160;4.146;2022-08-06T03:15:49;4.20;;;1.05;;
43345;SDS011;28937;51.160;4.146;2022-08-06T03:18:17;4.00;;;1.33;;
43345;SDS011;28937;51.160;4.146;2022-08-06T03:20:43;3.00;;;1.00;;
43345;SDS011;28937;51.160;4.146;2022-08-06T03:23:10;3.72;;;1.05;;
43345;SDS011;28937;51.160;4.146;2022-08-06T03:25:38;2.92;;;0.82;;
43345;SDS011;28937;51.160;4.146;2022-08-06T03:28:04;3.92;;;0.93;;
43345;SDS011;28937;51.160;4.146;2022-08-06T03:30:32;3.08;;;1.15;;
43345;SDS011;28937;51.160;4.146;2022-08-06T03:32:59;4.03;;;1.08;;
43345;SDS011;28937;51.160;4.146;2022-08-06T03:35:29;8.37;;;1.00;;
43345;SDS011;28937;51.160;4.146;2022-08-06T03:37:57;3.22;;;0.80;;
43345;SDS011;28937;51.160;4.146;2022-08-06T03:40:23;3.72;;;0.90;;
43345;SDS011;28937;51.160;4.146;2022-08-06T03:42:50;3.95;;;0.85;;
43345;SDS011;28937;51.160;4.146;2022-08-06T03:45:16;3.13;;;1.02;;
43345;SDS011;28937;51.160;4.146;2022-08-06T03:47:43;3.35;;;0.73;;
43345;SDS011;28937;51.160;4.146;2022-08-06T03:50:15;2.58;;;0.77;;
43345;SDS011;28937;51.160;4.146;2022-08-06T03:52:48;5.47;;;0.88;;
43345;SDS011;28937;51.160;4.146;2022-08-06T03:55:20;4.68;;;1.23;;
43345;SDS011;28937;51.160;4.146;2022-08-06T03:57:49;4.30;;;0.90;;
43345;SDS011;28937;51.160;4.146;2022-08-06T04:00:19;3.65;;;1.08;;
43345;SDS011;28937;51.160;4.146;2022-08-06T04:02:49;3.35;;;0.93;;
43345;SDS011;28937;51.160;4.146;2022-08-06T04:05:21;3.78;;;0.90;;
43345;SDS011;28937;51.160;4.146;2022-08-06T04:07:50;2.77;;;1.07;;
43345;SDS011;28937;51.160;4.146;2022-08-06T04:10:18;3.28;;;0.95;;
43345;SDS011;28937;51.160;4.146;2022-08-06T04:12:44;3.72;;;1.13;;
43345;SDS011;28937;51.160;4.146;2022-08-06T04:15:12;5.07;;;0.95;;
43345;SDS011;28937;51.160;4.146;2022-08-06T04:17:39;2.13;;;0.98;;
43345;SDS011;28937;51.160;4.146;2022-08-06T04:20:08;2.72;;;0.85;;
43345;SDS011;28937;51.160;4.146;2022-08-06T04:22:36;5.43;;;0.80;;
43345;SDS011;28937;51.160;4.146;2022-08-06T04:25:01;2.83;;;0.77;;
43345;SDS011;28937;51.160;4.146;2022-08-06T04:27:27;5.85;;;1.10;;
43345;SDS011;28937;51.160;4.146;2022-08-06T04:29:54;3.70;;;0.90;;
43345;SDS011;28937;51.160;4.146;2022-08-06T04:32:22;2.60;;;0.85;;
43345;SDS011;28937;51.160;4.146;2022-08-06T04:34:48;2.55;;;0.80;;
43345;SDS011;28937;51.160;4.146;2022-08-06T04:37:16;5.95;;;1.20;;
43345;SDS011;28937;51.160;4.146;2022-08-06T04:39:42;5.53;;;1.05;;
43345;SDS011;28937;51.160;4.146;2022-08-06T04:42:08;4.13;;;1.00;;
43345;SDS011;28937;51.160;4.146;2022-08-06T04:44:34;2.97;;;1.00;;
43345;SDS011;28937;51.160;4.146;2022-08-06T04:47:01;2.15;;;0.95;;
43345;SDS011;28937;51.160;4.146;2022-08-06T04:49:27;3.20;;;0.93;;
43345;SDS011;28937;51.160;4.146;2022-08-06T04:51:54;3.90;;;0.80;;
43345;SDS011;28937;51.160;4.146;2022-08-06T04:54:20;7.00;;;1.85;;
43345;SDS011;28937;51.160;4.146;2022-08-06T04:56:46;4.40;;;0.77;;
43345;SDS011;28937;51.160;4.146;2022-08-06T04:59:12;6.00;;;1.00;;
43345;SDS011;28937;51.160;4.146;2022-08-06T05:01:37;3.55;;;1.20;;
43345;SDS011;28937;51.160;4.146;2022-08-06T05:04:03;4.45;;;1.10;;
43345;SDS011;28937;51.160;4.146;2022-08-06T05:06:46;5.70;;;1.27;;
43345;SDS011;28937;51.160;4.146;2022-08-06T05:09:22;3.75;;;1.10;;
43345;SDS011;28937;51.160;4.146;2022-08-06T05:11:54;3.80;;;1.30;;
43345;SDS011;28937;51.160;4.146;2022-08-06T05:14:30;5.25;;;1.70;;
43345;SDS011;28937;51.160;4.146;2022-08-06T05:17:01;5.72;;;1.33;;
43345;SDS011;28937;51.160;4.146;2022-08-06T05:19:33;6.82;;;1.25;;
43345;SDS011;28937;51.160;4.146;2022-08-06T05:22:01;4.30;;;1.25;;
43345;SDS011;28937;51.160;4.146;2022-08-06T05:24:28;5.20;;;1.40;;
43345;SDS011;28937;51.160;4.146;2022-08-06T05:26:55;4.32;;;1.10;;
43345;SDS011;28937;51.160;4.146;2022-08-06T05:29:21;7.47;;;1.70;;
43345;SDS011;28937;51.160;4.146;2022-08-06T05:31:47;5.32;;;1.48;;
43345;SDS011;28937;51.160;4.146;2022-08-06T05:34:13;4.82;;;1.50;;
43345;SDS011;28937;51.160;4.146;2022-08-06T05:36:39;5.00;;;1.15;;
43345;SDS011;28937;51.160;4.146;2022-08-06T05:39:06;5.45;;;1.27;;
43345;SDS011;28937;51.160;4.146;2022-08-06T05:41:31;6.32;;;1.75;;
43345;SDS011;28937;51.160;4.146;2022-08-06T05:44:00;5.07;;;1.33;;
43345;SDS011;28937;51.160;4.146;2022-08-06T05:46:28;5.00;;;1.80;;
43345;SDS011;28937;51.160;4.146;2022-08-06T05:51:27;4.05;;;1.13;;
43345;SDS011;28937;51.160;4.146;2022-08-06T05:53:59;3.33;;;1.48;;
43345;SDS011;28937;51.160;4.146;2022-08-06T05:56:34;4.85;;;1.90;;
43345;SDS011;28937;51.160;4.146;2022-08-06T05:59:05;5.95;;;1.50;;
43345;SDS011;28937;51.160;4.146;2022-08-06T06:01:35;5.70;;;1.30;;
43345;SDS011;28937;51.160;4.146;2022-08-06T06:04:02;5.97;;;1.45;;
43345;SDS011;28937;51.160;4.146;2022-08-06T06:06:28;4.63;;;1.20;;
43345;SDS011;28937;51.160;4.146;2022-08-06T06:08:55;6.00;;;1.98;;
43345;SDS011;28937;51.160;4.146;2022-08-06T06:11:21;4.75;;;1.20;;
43345;SDS011;28937;51.160;4.146;2022-08-06T06:13:48;2.10;;;1.20;;
43345;SDS011;28937;51.160;4.146;2022-08-06T06:19:04;4.20;;;1.17;;
43345;SDS011;28937;51.160;4.146;2022-08-06T06:21:36;3.22;;;1.08;;
43345;SDS011;28937;51.160;4.146;2022-08-06T06:27:15;8.45;;;1.27;;
43345;SDS011;28937;51.160;4.146;2022-08-06T06:29:47;3.85;;;1.15;;
43345;SDS011;28937;51.160;4.146;2022-08-06T06:35:41;4.97;;;0.93;;
43345;SDS011;28937;51.160;4.146;2022-08-06T06:38:31;3.85;;;0.90;;
43345;SDS011;28937;51.160;4.146;2022-08-06T06:41:30;6.22;;;1.13;;
43345;SDS011;28937;51.160;4.146;2022-08-06T06:52:07;4.60;;;1.08;;
43345;SDS011;28937;51.160;4.146;2022-08-06T06:54:38;3.55;;;1.10;;
43345;SDS011;28937;51.160;4.146;2022-08-06T06:57:10;7.13;;;1.35;;
43345;SDS011;28937;51.160;4.146;2022-08-06T06:59:42;4.07;;;0.93;;
43345;SDS011;28937;51.160;4.146;2022-08-06T07:02:16;5.90;;;1.17;;
43345;SDS011;28937;51.160;4.146;2022-08-06T07:04:46;5.18;;;0.98;;
43345;SDS011;28937;51.160;4.146;2022-08-06T07:07:14;11.52;;;1.40;;
43345;SDS011;28937;51.160;4.146;2022-08-06T07:09:41;5.93;;;0.73;;
43345;SDS011;28937;51.160;4.146;2022-08-06T07:12:09;6.22;;;0.70;;
43345;SDS011;28937;51.160;4.146;2022-08-06T07:14:37;5.25;;;1.15;;
43345;SDS011;28937;51.160;4.146;2022-08-06T07:17:05;3.45;;;1.10;;
43345;SDS011;28937;51.160;4.146;2022-08-06T07:19:32;2.80;;;0.70;;
43345;SDS011;28937;51.160;4.146;2022-08-06T07:22:00;2.30;;;0.50;;
43345;SDS011;28937;51.160;4.146;2022-08-06T07:24:27;5.28;;;0.68;;
43345;SDS011;28937;51.160;4.146;2022-08-06T07:26:56;2.72;;;0.52;;
43345;SDS011;28937;51.160;4.146;2022-08-06T07:29:23;4.57;;;0.73;;
43345;SDS011;28937;51.160;4.146;2022-08-06T07:31:49;3.58;;;0.50;;
43345;SDS011;28937;51.160;4.146;2022-08-06T07:34:15;4.82;;;0.75;;
43345;SDS011;28937;51.160;4.146;2022-08-06T07:36:43;2.70;;;0.50;;
43345;SDS011;28937;51.160;4.146;2022-08-06T07:39:13;4.25;;;0.50;;
43345;SDS011;28937;51.160;4.146;2022-08-06T07:41:44;3.30;;;0.90;;
43345;SDS011;28937;51.160;4.146;2022-08-06T07:44:12;5.82;;;0.93;;
43345;SDS011;28937;51.160;4.146;2022-08-06T07:46:39;2.08;;;0.40;;
43345;SDS011;28937;51.160;4.146;2022-08-06T07:49:08;5.43;;;0.60;;
43345;SDS011;28937;51.160;4.146;2022-08-06T07:51:38;1.88;;;0.50;;
43345;SDS011;28937;51.160;4.146;2022-08-06T07:54:07;3.97;;;0.70;;
43345;SDS011;28937;51.160;4.146;2022-08-06T07:56:34;3.25;;;0.57;;
43345;SDS011;28937;51.160;4.146;2022-08-06T07:59:02;2.92;;;0.55;;
43345;SDS011;28937;51.160;4.146;2022-08-06T08:01:29;3.17;;;0.40;;
43345;SDS011;28937;51.160;4.146;2022-08-06T08:03:56;7.05;;;0.63;;
43345;SDS011;28937;51.160;4.146;2022-08-06T08:06:40;4.22;;;0.40;;
43345;SDS011;28937;51.160;4.146;2022-08-06T08:09:08;6.32;;;0.68;;
43345;SDS011;28937;51.160;4.146;2022-08-06T08:11:43;3.28;;;0.55;;
43345;SDS011;28937;51.160;4.146;2022-08-06T08:14:12;1.00;;;0.45;;
43345;SDS011;28937;51.160;4.146;2022-08-06T08:16:39;2.95;;;0.50;;
43345;SDS011;28937;51.160;4.146;2022-08-06T08:19:20;3.03;;;0.50;;
43345;SDS011;28937;51.160;4.146;2022-08-06T08:21:47;3.17;;;0.70;;
43345;SDS011;28937;51.160;4.146;2022-08-06T08:24:14;1.42;;;0.30;;
43345;SDS011;28937;51.160;4.146;2022-08-06T08:26:41;2.95;;;0.50;;
43345;SDS011;28937;51.160;4.146;2022-08-06T08:29:06;3.15;;;0.30;;
43345;SDS011;28937;51.160;4.146;2022-08-06T08:31:32;1.45;;;0.30;;
43345;SDS011;28937;51.160;4.146;2022-08-06T08:33:57;2.40;;;0.50;;
43345;SDS011;28937;51.160;4.146;2022-08-06T08:36:23;2.13;;;0.40;;
43345;SDS011;28937;51.160;4.146;2022-08-06T08:38:48;2.50;;;0.50;;
43345;SDS011;28937;51.160;4.146;2022-08-06T08:41:21;3.25;;;0.50;;
43345;SDS011;28937;51.160;4.146;2022-08-06T08:43:52;3.05;;;0.40;;
43345;SDS011;28937;51.160;4.146;2022-08-06T08:46:32;0.80;;;0.20;;
43345;SDS011;28937;51.160;4.146;2022-08-06T08:49:13;3.47;;;0.30;;
43345;SDS011;28937;51.160;4.146;2022-08-06T08:51:44;1.23;;;0.30;;
43345;SDS011;28937;51.160;4.146;2022-08-06T08:54:13;1.35;;;0.35;;
43345;SDS011;28937;51.160;4.146;2022-08-06T08:56:41;1.40;;;0.40;;
43345;SDS011;28937;51.160;4.146;2022-08-06T08:59:09;2.35;;;0.30;;
43345;SDS011;28937;51.160;4.146;2022-08-06T09:01:34;2.65;;;0.40;;
43345;SDS011;28937;51.160;4.146;2022-08-06T09:04:03;1.05;;;0.20;;
43345;SDS011;28937;51.160;4.146;2022-08-06T09:06:30;2.40;;;0.70;;
43345;SDS011;28937;51.160;4.146;2022-08-06T09:08:57;2.58;;;0.50;;
43345;SDS011;28937;51.160;4.146;2022-08-06T09:11:29;2.95;;;0.40;;
43345;SDS011;28937;51.160;4.146;2022-08-06T09:13:55;0.93;;;0.15;;
43345;SDS011;28937;51.160;4.146;2022-08-06T09:16:21;1.08;;;0.20;;
43345;SDS011;28937;51.160;4.146;2022-08-06T09:18:47;1.90;;;0.45;;
43345;SDS011;28937;51.160;4.146;2022-08-06T09:21:12;2.33;;;0.35;;
43345;SDS011;28937;51.160;4.146;2022-08-06T09:23:38;2.28;;;0.77;;
43345;SDS011;28937;51.160;4.146;2022-08-06T09:26:05;2.67;;;0.30;;
43345;SDS011;28937;51.160;4.146;2022-08-06T09:28:35;2.60;;;0.10;;
43345;SDS011;28937;51.160;4.146;2022-08-06T09:33:29;1.13;;;0.28;;
43345;SDS011;28937;51.160;4.146;2022-08-06T09:36:06;2.65;;;0.45;;
43345;SDS011;28937;51.160;4.146;2022-08-06T09:38:44;2.95;;;0.40;;
43345;SDS011;28937;51.160;4.146;2022-08-06T09:41:12;2.30;;;0.40;;
43345;SDS011;28937;51.160;4.146;2022-08-06T09:43:39;3.22;;;0.40;;
43345;SDS011;28937;51.160;4.146;2022-08-06T09:46:05;3.45;;;0.20;;
43345;SDS011;28937;51.160;4.146;2022-08-06T09:48:32;2.95;;;0.30;;
43345;SDS011;28937;51.160;4.146;2022-08-06T09:50:58;1.45;;;0.30;;
43345;SDS011;28937;51.160;4.146;2022-08-06T09:53:24;2.38;;;0.30;;
43345;SDS011;28937;51.160;4.146;2022-08-06T09:55:50;2.03;;;0.32;;
43345;SDS011;28937;51.160;4.146;2022-08-06T09:58:27;1.33;;;0.30;;
43345;SDS011;28937;51.160;4.146;2022-08-06T10:03:47;4.15;;;0.45;;
43345;SDS011;28937;51.160;4.146;2022-08-06T10:06:14;2.85;;;0.40;;
43345;SDS011;28937;51.160;4.146;2022-08-06T10:08:46;2.17;;;0.22;;
43345;SDS011;28937;51.160;4.146;2022-08-06T10:11:14;5.45;;;0.50;;
43345;SDS011;28937;51.160;4.146;2022-08-06T10:13:46;1.02;;;0.20;;
43345;SDS011;28937;51.160;4.146;2022-08-06T10:16:20;1.80;;;0.30;;
43345;SDS011;28937;51.160;4.146;2022-08-06T10:18:52;2.22;;;0.30;;
43345;SDS011;28937;51.160;4.146;2022-08-06T10:21:19;2.67;;;0.20;;
43345;SDS011;28937;51.160;4.146;2022-08-06T10:23:49;1.73;;;0.20;;
43345;SDS011;28937;51.160;4.146;2022-08-06T10:26:21;2.40;;;0.30;;
43345;SDS011;28937;51.160;4.146;2022-08-06T10:28:50;4.00;;;0.40;;
43345;SDS011;28937;51.160;4.146;2022-08-06T10:31:17;2.72;;;0.30;;
43345;SDS011;28937;51.160;4.146;2022-08-06T10:34:00;1.70;;;0.30;;
43345;SDS011;28937;51.160;4.146;2022-08-06T10:36:40;1.88;;;0.40;;
43345;SDS011;28937;51.160;4.146;2022-08-06T10:39:10;2.65;;;0.20;;
43345;SDS011;28937;51.160;4.146;2022-08-06T10:41:36;1.55;;;0.40;;
43345;SDS011;28937;51.160;4.146;2022-08-06T10:44:04;3.10;;;0.28;;
43345;SDS011;28937;51.160;4.146;2022-08-06T10:46:30;2.00;;;0.40;;
43345;SDS011;28937;51.160;4.146;2022-08-06T10:48:56;2.95;;;0.20;;
43345;SDS011;28937;51.160;4.146;2022-08-06T10:51:22;1.75;;;0.30;;
43345;SDS011;28937;51.160;4.146;2022-08-06T10:53:48;1.30;;;0.30;;
43345;SDS011;28937;51.160;4.146;2022-08-06T10:56:15;2.70;;;0.20;;
43345;SDS011;28937;51.160;4.146;2022-08-06T10:58:43;0.98;;;0.30;;
43345;SDS011;28937;51.160;4.146;2022-08-06T11:01:43;4.28;;;0.43;;
43345;SDS011;28937;51.160;4.146;2022-08-06T11:12:09;2.05;;;0.28;;
43345;SDS011;28937;51.160;4.146;2022-08-06T11:14:38;2.13;;;0.40;;
43345;SDS011;28937;51.160;4.146;2022-08-06T11:17:05;1.45;;;0.20;;
43345;SDS011;28937;51.160;4.146;2022-08-06T11:19:41;2.13;;;0.65;;
43345;SDS011;28937;51.160;4.146;2022-08-06T11:25:00;3.50;;;0.52;;
43345;SDS011;28937;51.160;4.146;2022-08-06T11:30:13;2.47;;;0.28;;
43345;SDS011;28937;51.160;4.146;2022-08-06T11:32:42;2.60;;;0.38;;
43345;SDS011;28937;51.160;4.146;2022-08-06T11:38:11;2.08;;;0.38;;
43345;SDS011;28937;51.160;4.146;2022-08-06T11:43:45;1.50;;;0.60;;
43345;SDS011;28937;51.160;4.146;2022-08-06T11:51:37;1.48;;;0.40;;
43345;SDS011;28937;51.160;4.146;2022-08-06T11:54:19;2.03;;;0.70;;
43345;SDS011;28937;51.160;4.146;2022-08-06T11:59:33;2.45;;;0.73;;
43345;SDS011;28937;51.160;4.146;2022-08-06T12:02:01;2.33;;;0.55;;
43345;SDS011;28937;51.160;4.146;2022-08-06T12:07:20;3.00;;;0.60;;
43345;SDS011;28937;51.160;4.146;2022-08-06T12:12:34;2.50;;;0.50;;
43345;SDS011;28937;51.160;4.146;2022-08-06T12:15:35;5.47;;;0.73;;
43345;SDS011;28937;51.160;4.146;2022-08-06T12:20:33;1.90;;;0.70;;
43345;SDS011;28937;51.160;4.146;2022-08-06T12:23:01;2.70;;;0.50;;
43345;SDS011;28937;51.160;4.146;2022-08-06T12:25:37;2.35;;;0.90;;
43345;SDS011;28937;51.160;4.146;2022-08-06T12:28:04;1.58;;;0.47;;
43345;SDS011;28937;51.160;4.146;2022-08-06T12:33:11;3.78;;;0.85;;
43345;SDS011;28937;51.160;4.146;2022-08-06T12:35:57;2.08;;;0.80;;
43345;SDS011;28937;51.160;4.146;2022-08-06T12:38:28;2.58;;;1.05;;
43345;SDS011;28937;51.160;4.146;2022-08-06T12:43:23;3.00;;;0.80;;
43345;SDS011;28937;51.160;4.146;2022-08-06T12:45:55;4.43;;;1.52;;
43345;SDS011;28937;51.160;4.146;2022-08-06T12:48:22;3.28;;;0.80;;
43345;SDS011;28937;51.160;4.146;2022-08-06T12:50:48;3.35;;;0.88;;
43345;SDS011;28937;51.160;4.146;2022-08-06T12:53:14;2.10;;;0.88;;
43345;SDS011;28937;51.160;4.146;2022-08-06T12:58:14;1.55;;;0.95;;
43345;SDS011;28937;51.160;4.146;2022-08-06T13:00:43;3.88;;;1.25;;
43345;SDS011;28937;51.160;4.146;2022-08-06T13:03:13;2.55;;;1.00;;
43345;SDS011;28937;51.160;4.146;2022-08-06T13:05:40;4.07;;;1.10;;
43345;SDS011;28937;51.160;4.146;2022-08-06T13:08:07;3.47;;;0.98;;
43345;SDS011;28937;51.160;4.146;2022-08-06T13:10:33;2.40;;;1.05;;
43345;SDS011;28937;51.160;4.146;2022-08-06T13:13:03;3.80;;;0.90;;
43345;SDS011;28937;51.160;4.146;2022-08-06T13:15:31;3.17;;;0.88;;
43345;SDS011;28937;51.160;4.146;2022-08-06T13:18:06;2.08;;;1.10;;
43345;SDS011;28937;51.160;4.146;2022-08-06T13:20:42;2.30;;;0.93;;
43345;SDS011;28937;51.160;4.146;2022-08-06T13:25:48;2.00;;;0.90;;
43345;SDS011;28937;51.160;4.146;2022-08-06T13:28:19;2.13;;;1.10;;
43345;SDS011;28937;51.160;4.146;2022-08-06T13:30:46;2.38;;;0.88;;
43345;SDS011;28937;51.160;4.146;2022-08-06T13:33:14;2.53;;;1.00;;
43345;SDS011;28937;51.160;4.146;2022-08-06T13:35:42;2.03;;;1.05;;
43345;SDS011;28937;51.160;4.146;2022-08-06T13:38:09;3.75;;;0.85;;
43345;SDS011;28937;51.160;4.146;2022-08-06T13:43:10;2.75;;;0.93;;
43345;SDS011;28937;51.160;4.146;2022-08-06T13:45:36;3.58;;;1.00;;
43345;SDS011;28937;51.160;4.146;2022-08-06T13:48:03;5.65;;;1.05;;
43345;SDS011;28937;51.160;4.146;2022-08-06T13:50:35;2.45;;;0.77;;
43345;SDS011;28937;51.160;4.146;2022-08-06T13:53:02;4.57;;;0.90;;
43345;SDS011;28937;51.160;4.146;2022-08-06T13:55:29;2.35;;;0.70;;
43345;SDS011;28937;51.160;4.146;2022-08-06T13:57:55;2.22;;;0.90;;
43345;SDS011;28937;51.160;4.146;2022-08-06T14:00:22;2.33;;;0.93;;
43345;SDS011;28937;51.160;4.146;2022-08-06T14:02:48;2.47;;;0.63;;
43345;SDS011;28937;51.160;4.146;2022-08-06T14:05:14;3.78;;;0.82;;
43345;SDS011;28937;51.160;4.146;2022-08-06T14:07:40;1.73;;;0.63;;
43345;SDS011;28937;51.160;4.146;2022-08-06T14:10:06;1.98;;;0.70;;
43345;SDS011;28937;51.160;4.146;2022-08-06T14:12:32;2.22;;;0.95;;
43345;SDS011;28937;51.160;4.146;2022-08-06T14:14:58;0.82;;;0.35;;
43345;SDS011;28937;51.160;4.146;2022-08-06T14:17:24;3.95;;;0.70;;
43345;SDS011;28937;51.160;4.146;2022-08-06T14:19:50;3.03;;;0.70;;
43345;SDS011;28937;51.160;4.146;2022-08-06T14:22:15;3.55;;;0.93;;
43345;SDS011;28937;51.160;4.146;2022-08-06T14:24:42;1.95;;;0.57;;
43345;SDS011;28937;51.160;4.146;2022-08-06T14:27:08;3.55;;;0.55;;
43345;SDS011;28937;51.160;4.146;2022-08-06T14:29:35;2.33;;;0.47;;
43345;SDS011;28937;51.160;4.146;2022-08-06T14:32:04;1.85;;;0.50;;
43345;SDS011;28937;51.160;4.146;2022-08-06T14:34:30;2.42;;;0.57;;
43345;SDS011;28937;51.160;4.146;2022-08-06T14:36:56;2.60;;;0.50;;
43345;SDS011;28937;51.160;4.146;2022-08-06T14:39:23;1.45;;;0.50;;
43345;SDS011;28937;51.160;4.146;2022-08-06T14:41:48;4.85;;;0.60;;
43345;SDS011;28937;51.160;4.146;2022-08-06T14:44:33;1.40;;;0.35;;
43345;SDS011;28937;51.160;4.146;2022-08-06T14:47:17;6.50;;;0.60;;
43345;SDS011;28937;51.160;4.146;2022-08-06T14:49:43;2.47;;;0.43;;
43345;SDS011;28937;51.160;4.146;2022-08-06T14:52:09;2.03;;;0.40;;
43345;SDS011;28937;51.160;4.146;2022-08-06T14:54:36;2.60;;;0.88;;
43345;SDS011;28937;51.160;4.146;2022-08-06T14:57:02;2.38;;;0.60;;
43345;SDS011;28937;51.160;4.146;2022-08-06T14:59:33;2.97;;;0.38;;
43345;SDS011;28937;51.160;4.146;2022-08-06T15:02:00;1.60;;;0.55;;
43345;SDS011;28937;51.160;4.146;2022-08-06T15:04:25;2.60;;;0.60;;
43345;SDS011;28937;51.160;4.146;2022-08-06T15:06:52;2.85;;;0.40;;
43345;SDS011;28937;51.160;4.146;2022-08-06T15:09:18;2.53;;;0.40;;
43345;SDS011;28937;51.160;4.146;2022-08-06T15:11:44;2.35;;;0.43;;
43345;SDS011;28937;51.160;4.146;2022-08-06T15:14:10;2.45;;;0.45;;
43345;SDS011;28937;51.160;4.146;2022-08-06T15:16:36;2.72;;;0.52;;
43345;SDS011;28937;51.160;4.146;2022-08-06T15:19:01;1.88;;;0.57;;
43345;SDS011;28937;51.160;4.146;2022-08-06T15:21:27;3.40;;;0.73;;
43345;SDS011;28937;51.160;4.146;2022-08-06T15:23:54;1.20;;;0.50;;
43345;SDS011;28937;51.160;4.146;2022-08-06T15:26:24;3.63;;;0.57;;
43345;SDS011;28937;51.160;4.146;2022-08-06T15:28:51;1.23;;;0.45;;
43345;SDS011;28937;51.160;4.146;2022-08-06T15:31:18;1.55;;;0.47;;
43345;SDS011;28937;51.160;4.146;2022-08-06T15:33:44;2.47;;;0.50;;
43345;SDS011;28937;51.160;4.146;2022-08-06T15:36:10;1.95;;;0.50;;
43345;SDS011;28937;51.160;4.146;2022-08-06T15:38:37;1.30;;;0.45;;
43345;SDS011;28937;51.160;4.146;2022-08-06T15:41:03;3.60;;;0.50;;
43345;SDS011;28937;51.160;4.146;2022-08-06T15:43:29;2.33;;;0.43;;
43345;SDS011;28937;51.160;4.146;2022-08-06T15:45:55;2.75;;;0.55;;
43345;SDS011;28937;51.160;4.146;2022-08-06T15:48:26;2.83;;;0.60;;
43345;SDS011;28937;51.160;4.146;2022-08-06T15:50:53;2.33;;;0.30;;
43345;SDS011;28937;51.160;4.146;2022-08-06T15:53:19;1.88;;;0.20;;
43345;SDS011;28937;51.160;4.146;2022-08-06T15:55:46;2.03;;;0.35;;
43345;SDS011;28937;51.160;4.146;2022-08-06T15:58:12;2.72;;;0.57;;
43345;SDS011;28937;51.160;4.146;2022-08-06T16:00:38;3.58;;;0.52;;
43345;SDS011;28937;51.160;4.146;2022-08-06T16:03:05;2.17;;;0.47;;
43345;SDS011;28937;51.160;4.146;2022-08-06T16:05:32;2.15;;;0.50;;
43345;SDS011;28937;51.160;4.146;2022-08-06T16:07:58;9.05;;;0.75;;
43345;SDS011;28937;51.160;4.146;2022-08-06T16:10:24;6.22;;;0.65;;
43345;SDS011;28937;51.160;4.146;2022-08-06T16:12:50;1.58;;;0.50;;
43345;SDS011;28937;51.160;4.146;2022-08-06T16:15:16;2.08;;;0.40;;
43345;SDS011;28937;51.160;4.146;2022-08-06T16:17:42;1.42;;;0.38;;
43345;SDS011;28937;51.160;4.146;2022-08-06T16:20:08;4.15;;;0.50;;
43345;SDS011;28937;51.160;4.146;2022-08-06T16:22:34;1.80;;;0.45;;